Time;durP1;ratioP1;P1;durP2;ratioP2;P2;SDS_P1;SDS_P2;PMS_P1;PMS_P2;Temp;Humidity;BMP_temperature;BMP_pressure;BME280_temperature;BME280_humidity;BME280_pressure;Samples;Min_cycle;Max_cycle;Signal;HPM_P1;HPM_P2
2022/05/24 00:02:16;;;;;;;13.15;8.73;;;;;;;15.65;nan;97713.28;4992227;28;20213;-63
2022/05/24 00:04:42;;;;;;;9.68;8.80;;;;;;;15.65;nan;97713.28;4990972;28;20033;-63
2022/05/24 00:07:07;;;;;;;17.95;8.93;;;;;;;15.76;nan;97735.94;4993347;28;20038;-63
2022/05/24 00:09:33;;;;;;;13.82;9.25;;;;;;;15.75;nan;97731.69;4990445;28;20046;-63
2022/05/24 00:11:58;;;;;;;12.20;9.23;;;;;;;15.72;nan;97729.28;4995309;28;20121;-63
2022/05/24 00:17:08;;;;;;;11.52;8.93;;;;;;;15.74;nan;97725.69;4991758;28;20041;-63
2022/05/24 00:19:34;;;;;;;11.27;9.80;;;;;;;15.74;nan;97717.13;5005797;28;20034;-63
2022/05/24 00:22:00;;;;;;;10.88;9.63;;;;;;;15.74;nan;97730.03;4998667;28;20124;-65
2022/05/24 00:24:26;;;;;;;10.27;9.27;;;;;;;15.64;nan;97713.34;4993029;28;20134;-62
2022/05/24 00:26:51;;;;;;;13.25;11.13;;;;;;;15.70;nan;97721.59;4991597;28;20058;-62
2022/05/24 00:29:17;;;;;;;11.98;10.23;;;;;;;15.78;nan;97727.22;4992972;28;20032;-62
2022/05/24 00:31:42;;;;;;;11.20;9.85;;;;;;;15.78;nan;97726.38;4998220;28;20425;-63
2022/05/24 00:34:08;;;;;;;11.57;10.40;;;;;;;15.79;nan;97718.53;4993878;28;20093;-63
2022/05/24 00:36:33;;;;;;;16.50;11.75;;;;;;;15.81;nan;97710.69;4992052;28;20042;-62
2022/05/24 00:38:58;;;;;;;12.88;11.57;;;;;;;15.75;nan;97709.28;4992324;28;20042;-62
2022/05/24 00:41:31;;;;;;;12.82;11.52;;;;;;;15.77;nan;97706.63;4998644;28;20355;-62
2022/05/24 00:43:59;;;;;;;16.08;12.27;;;;;;;15.83;nan;97711.44;4994251;28;20038;-63
2022/05/24 00:46:50;;;;;;;14.13;12.70;;;;;;;15.81;nan;97701.19;4989826;28;20030;-62
2022/05/24 00:49:24;;;;;;;12.55;11.43;;;;;;;15.84;nan;97705.34;4996178;28;20041;-63
2022/05/24 00:52:14;;;;;;;13.40;12.02;;;;;;;15.82;nan;97705.44;4997241;28;20030;-62
2022/05/24 00:54:40;;;;;;;13.38;11.63;;;;;;;15.77;nan;97704.03;4991038;28;20075;-62
2022/05/24 00:57:30;;;;;;;12.77;11.45;;;;;;;15.83;nan;97707.09;4991101;28;20026;-62
2022/05/24 01:00:20;;;;;;;13.93;12.52;;;;;;;15.82;nan;97712.38;4996095;28;20132;-62
2022/05/24 01:02:46;;;;;;;13.15;11.85;;;;;;;15.80;nan;97704.69;4996664;28;20038;-62
2022/05/24 01:05:18;;;;;;;13.65;12.35;;;;;;;15.82;nan;97709.78;4991070;28;20042;-62
2022/05/24 01:07:43;;;;;;;13.07;12.05;;;;;;;15.71;nan;97688.84;4990288;28;20378;-62
2022/05/24 01:10:29;;;;;;;11.23;10.18;;;;;;;15.76;nan;97699.78;4994249;28;20038;-63
2022/05/24 01:13:06;;;;;;;11.80;10.63;;;;;;;15.70;nan;97684.63;4992283;28;20492;-61
2022/05/24 01:15:33;;;;;;;12.48;11.15;;;;;;;15.70;nan;97685.41;4988870;28;20112;-62
2022/05/24 01:17:59;;;;;;;11.93;10.80;;;;;;;15.73;nan;97684.44;4990209;28;20049;-62
2022/05/24 01:20:25;;;;;;;13.35;11.75;;;;;;;15.73;nan;97687.84;4994090;28;20577;-62
2022/05/24 01:23:12;;;;;;;12.73;11.27;;;;;;;15.80;nan;97678.84;4989767;28;20041;-62
2022/05/24 01:25:50;;;;;;;13.70;12.25;;;;;;;15.69;nan;97663.09;4990351;28;20042;-62
2022/05/24 01:28:32;;;;;;;13.35;10.85;;;;;;;15.71;nan;97681.09;4989742;28;20336;-63
2022/05/24 01:30:59;;;;;;;13.38;10.30;;;;;;;15.67;nan;97677.00;4989895;28;20034;-62
2022/05/24 01:36:10;;;;;;;13.57;11.20;;;;;;;15.61;nan;97685.94;4994739;28;20049;-62
2022/05/24 01:38:40;;;;;;;11.25;10.15;;;;;;;15.62;nan;97684.16;4989704;28;20495;-62
2022/05/24 01:41:06;;;;;;;13.45;12.13;;;;;;;15.61;nan;97679.94;4992200;28;20058;-62
2022/05/24 01:43:32;;;;;;;12.93;10.60;;;;;;;15.68;nan;97674.34;4990454;28;20061;-63
2022/05/24 01:46:03;;;;;;;11.32;10.20;;;;;;;15.68;nan;97676.94;4997242;28;20034;-63
2022/05/24 01:48:38;;;;;;;12.25;11.05;;;;;;;15.70;nan;97680.25;4993539;28;20388;-62
2022/05/24 01:51:06;;;;;;;14.38;11.20;;;;;;;15.69;nan;97670.84;4989572;28;20037;-63
2022/05/24 01:53:42;;;;;;;11.90;10.80;;;;;;;15.61;nan;97662.69;4990212;28;20046;-63
2022/05/24 01:56:12;;;;;;;13.57;11.20;;;;;;;15.63;nan;97668.59;4995834;28;20033;-62
2022/05/24 01:58:39;;;;;;;12.05;10.85;;;;;;;15.64;nan;97674.59;4992477;28;20042;-62
2022/05/24 02:01:15;;;;;;;14.05;11.32;;;;;;;15.69;nan;97672.59;4990405;28;20034;-62
2022/05/24 02:03:40;;;;;;;12.30;11.20;;;;;;;15.69;nan;97680.34;4993141;28;20081;-62
2022/05/24 02:06:38;;;;;;;12.73;11.43;;;;;;;15.72;nan;97686.19;4996100;28;20128;-62
2022/05/24 02:09:05;;;;;;;12.57;11.27;;;;;;;15.71;nan;97684.50;4960423;28;20519;-62
2022/05/24 02:11:33;;;;;;;13.55;12.18;;;;;;;15.64;nan;97678.03;4988565;28;20634;-62
2022/05/24 02:14:10;;;;;;;14.27;12.80;;;;;;;15.76;nan;97689.44;4993967;28;20030;-62
2022/05/24 02:16:48;;;;;;;13.27;12.15;;;;;;;15.70;nan;97680.25;4995355;28;20038;-62
2022/05/24 02:19:15;;;;;;;13.73;12.10;;;;;;;15.68;nan;97674.34;4989155;28;20041;-62
2022/05/24 02:21:44;;;;;;;14.65;12.98;;;;;;;15.70;nan;97682.84;4989254;28;20121;-62
2022/05/24 02:24:20;;;;;;;13.07;11.88;;;;;;;15.67;nan;97698.53;4994504;28;20153;-63
2022/05/24 02:26:46;;;;;;;14.02;12.60;;;;;;;15.57;nan;97684.44;4997199;28;20104;-62
2022/05/24 02:29:12;;;;;;;14.90;13.02;;;;;;;15.54;nan;97682.00;4989608;28;20479;-63
2022/05/24 02:31:38;;;;;;;15.23;12.90;;;;;;;15.54;nan;97679.44;4988392;28;20041;-62
2022/05/24 02:34:04;;;;;;;16.90;13.43;;;;;;;15.61;nan;97691.13;4992602;28;20117;-63
2022/05/24 02:36:29;;;;;;;15.85;14.20;;;;;;;15.59;nan;97680.00;4993498;28;20540;-62
2022/05/24 02:38:55;;;;;;;14.32;12.95;;;;;;;15.66;nan;97696.84;4988487;28;20138;-62
2022/05/24 02:41:29;;;;;;;14.82;13.10;;;;;;;15.69;nan;97690.69;4988004;28;20184;-62
2022/05/24 02:44:00;;;;;;;16.45;13.50;;;;;;;15.77;nan;97696.28;4989625;28;20060;-62
2022/05/24 02:46:27;;;;;;;15.68;13.00;;;;;;;15.73;nan;97690.44;4992389;28;20072;-62
2022/05/24 02:48:52;;;;;;;14.60;13.20;;;;;;;15.63;nan;97678.09;4987301;28;20405;-62
2022/05/24 02:51:18;;;;;;;17.77;13.35;;;;;;;15.71;nan;97686.25;4990165;28;20065;-62
2022/05/24 02:53:45;;;;;;;14.63;13.18;;;;;;;15.71;nan;97681.94;4987609;28;20092;-62
2022/05/24 02:56:11;;;;;;;16.23;13.50;;;;;;;15.79;nan;97677.16;4989246;28;20081;-62
2022/05/24 02:58:37;;;;;;;14.85;13.50;;;;;;;15.72;nan;97660.34;4989062;28;20556;-62
2022/05/24 03:01:09;;;;;;;14.55;13.10;;;;;;;15.79;nan;97673.75;4994864;28;20026;-62
2022/05/24 03:03:34;;;;;;;17.27;14.48;;;;;;;15.80;nan;97676.25;4989176;28;20038;-62
2022/05/24 03:06:00;;;;;;;15.30;13.07;;;;;;;15.82;nan;97673.59;4989282;28;20446;-62
2022/05/24 03:11:10;;;;;;;17.05;13.60;;;;;;;15.71;nan;97663.00;4993919;28;20142;-62
2022/05/24 03:16:20;;;;;;;14.57;13.10;;;;;;;15.73;nan;97659.44;4993572;28;20053;-62
2022/05/24 03:18:45;;;;;;;15.40;13.75;;;;;;;15.81;nan;97661.59;4995985;28;20030;-62
2022/05/24 03:21:11;;;;;;;15.65;14.25;;;;;;;15.81;nan;97670.19;4998243;28;20461;-62
2022/05/24 03:23:37;;;;;;;14.98;13.65;;;;;;;15.81;nan;97659.00;4994099;28;20456;-62
2022/05/24 03:26:03;;;;;;;14.45;13.15;;;;;;;15.78;nan;97669.53;4992197;28;20059;-63
2022/05/24 03:28:28;;;;;;;14.65;13.25;;;;;;;15.81;nan;97674.50;4994768;28;20045;-62
2022/05/24 03:30:54;;;;;;;15.27;13.88;;;;;;;15.79;nan;97660.81;5014056;28;20532;-63
2022/05/24 03:33:20;;;;;;;14.20;12.68;;;;;;;15.80;nan;97675.41;4995215;28;20078;-61
2022/05/24 03:35:46;;;;;;;17.60;13.93;;;;;;;15.80;nan;97678.84;4992385;28;20443;-63
2022/05/24 03:38:11;;;;;;;16.02;14.50;;;;;;;15.86;nan;97694.03;4995390;28;20648;-62
2022/05/24 03:40:37;;;;;;;15.27;13.77;;;;;;;15.83;nan;97677.81;4999355;28;20034;-64
2022/05/24 03:43:03;;;;;;;15.15;13.75;;;;;;;15.91;nan;97686.03;4993534;28;20038;-63
2022/05/24 03:45:29;;;;;;;14.65;12.82;;;;;;;15.95;nan;97690.09;4993432;28;20467;-63
2022/05/24 03:47:55;;;;;;;15.15;13.60;;;;;;;15.88;nan;97683.59;4991717;28;20042;-63
2022/05/24 03:50:22;;;;;;;17.02;14.98;;;;;;;15.92;nan;97693.66;4999001;28;20038;-63
2022/05/24 03:52:49;;;;;;;16.77;15.10;;;;;;;15.85;nan;97687.19;4993097;28;20026;-63
2022/05/24 03:55:15;;;;;;;16.55;14.85;;;;;;;15.97;nan;97702.00;4990872;28;20030;-63
2022/05/24 04:00:26;;;;;;;17.07;14.97;;;;;;;15.92;nan;97695.41;4997879;28;20033;-63
2022/05/24 04:02:52;;;;;;;15.48;13.95;;;;;;;16.00;nan;97706.16;4990883;28;20269;-63
2022/05/24 04:05:17;;;;;;;15.10;13.80;;;;;;;16.00;nan;97701.00;4991257;28;20602;-63
2022/05/24 04:07:43;;;;;;;15.63;12.93;;;;;;;16.04;nan;97702.50;4990880;28;20041;-63
2022/05/24 04:10:11;;;;;;;16.25;14.35;;;;;;;16.06;nan;97702.41;4994442;28;20419;-62
2022/05/24 04:12:36;;;;;;;15.05;13.63;;;;;;;16.06;nan;97705.00;4990773;28;20396;-63
2022/05/24 04:15:02;;;;;;;17.42;15.68;;;;;;;16.06;nan;97710.16;4995157;28;20030;-62
2022/05/24 04:17:27;;;;;;;15.02;13.75;;;;;;;16.05;nan;97714.50;4993117;28;20388;-62
2022/05/24 04:19:53;;;;;;;14.57;13.13;;;;;;;16.08;nan;97714.34;4991267;28;20033;-62
2022/05/24 04:22:18;;;;;;;14.57;13.10;;;;;;;16.05;nan;97713.66;4991392;28;20026;-62
2022/05/24 04:24:43;;;;;;;15.95;14.30;;;;;;;16.07;nan;97714.44;4996564;28;20074;-62
2022/05/24 04:27:09;;;;;;;16.45;13.43;;;;;;;16.11;nan;97721.09;4993916;28;20197;-62
2022/05/24 04:29:38;;;;;;;14.88;13.40;;;;;;;16.16;nan;97722.53;4993877;28;20046;-62
2022/05/24 04:32:04;;;;;;;15.48;14.07;;;;;;;16.23;nan;97723.00;4993401;28;20154;-62
2022/05/24 04:34:29;;;;;;;15.20;13.68;;;;;;;16.27;nan;97727.91;4995350;28;20061;-62
2022/05/24 04:36:55;;;;;;;14.48;13.18;;;;;;;16.28;nan;97728.75;4995578;28;20037;-61
2022/05/24 04:39:20;;;;;;;15.02;13.48;;;;;;;16.31;nan;97732.00;4991094;28;20468;-61
2022/05/24 04:44:30;;;;;;;15.13;13.50;;;;;;;16.26;nan;97722.81;4998769;28;20574;-62
2022/05/24 04:47:07;;;;;;;15.68;13.40;;;;;;;16.29;nan;97739.03;4997649;28;20034;-62
2022/05/24 04:49:34;;;;;;;13.65;12.18;;;;;;;16.31;nan;97734.56;4990097;28;20583;-61
2022/05/24 04:51:59;;;;;;;14.45;12.73;;;;;;;16.31;nan;97733.75;4991652;28;20034;-62
2022/05/24 04:54:25;;;;;;;14.10;12.80;;;;;;;16.33;nan;97730.16;4997041;28;20519;-61
2022/05/24 04:56:50;;;;;;;14.48;12.95;;;;;;;16.39;nan;97737.56;4995064;28;20038;-62
2022/05/24 04:59:19;;;;;;;15.48;13.75;;;;;;;16.42;nan;97752.09;4991161;28;20092;-62
2022/05/24 05:01:45;;;;;;;14.93;13.52;;;;;;;16.47;nan;97757.81;4991708;28;20042;-61
2022/05/24 05:04:11;;;;;;;14.98;13.52;;;;;;;16.58;nan;97755.50;4997717;28;20038;-61
2022/05/24 05:06:36;;;;;;;16.48;14.77;;;;;;;16.66;nan;97763.66;4994759;28;20492;-62
2022/05/24 05:09:03;;;;;;;14.48;13.05;;;;;;;16.78;nan;97768.13;4991699;28;20457;-62
2022/05/24 05:11:28;;;;;;;14.73;13.32;;;;;;;16.81;nan;97755.00;4990358;28;20042;-62
2022/05/24 05:13:54;;;;;;;19.63;15.07;;;;;;;16.93;nan;97766.41;4994191;28;20034;-62
2022/05/24 05:16:19;;;;;;;14.15;12.75;;;;;;;16.95;nan;97759.38;4993751;28;20420;-62
2022/05/24 05:18:45;;;;;;;15.27;13.77;;;;;;;17.00;nan;97777.25;4990369;28;20563;-62
2022/05/24 05:21:10;;;;;;;12.38;11.38;;;;;;;17.07;nan;97791.50;4992279;28;20030;-62
2022/05/24 05:23:36;;;;;;;15.10;13.50;;;;;;;17.10;nan;97799.09;4992306;28;20022;-62
2022/05/24 05:26:02;;;;;;;12.32;11.02;;;;;;;17.04;nan;97802.03;4991055;28;20645;-62
2022/05/24 05:28:28;;;;;;;10.82;9.93;;;;;;;17.03;nan;97808.97;4989893;28;20045;-64
2022/05/24 05:33:37;;;;;;;14.38;9.85;;;;;;;16.93;nan;97817.38;4997017;28;20038;-63
2022/05/24 05:36:04;;;;;;;11.48;9.25;;;;;;;17.09;nan;97834.53;4992414;28;20034;-64
2022/05/24 05:38:31;;;;;;;9.70;8.55;;;;;;;17.28;nan;97821.31;4990677;28;20400;-61
2022/05/24 05:40:58;;;;;;;16.83;9.20;;;;;;;17.26;nan;97831.78;4996418;28;20030;-61
2022/05/24 05:43:24;;;;;;;9.38;8.45;;;;;;;17.33;nan;97834.84;4998516;28;20049;-61
2022/05/24 05:45:59;;;;;;;10.18;9.13;;;;;;;17.40;nan;97843.09;4991566;28;20068;-61
2022/05/24 05:48:25;;;;;;;9.10;8.35;;;;;;;17.64;nan;97849.44;4991914;28;20056;-63
2022/05/24 05:50:51;;;;;;;10.55;8.18;;;;;;;17.75;nan;97834.06;4996802;28;20597;-63
2022/05/24 05:53:18;;;;;;;9.10;8.20;;;;;;;18.01;nan;97846.28;4994145;28;20552;-61
2022/05/24 05:55:44;;;;;;;10.25;8.20;;;;;;;18.08;nan;97837.19;4991087;28;20456;-61
2022/05/24 05:58:10;;;;;;;8.93;8.10;;;;;;;18.15;nan;97854.06;4991336;28;20068;-61
2022/05/24 06:00:38;;;;;;;8.70;7.90;;;;;;;18.46;nan;97857.34;4996025;28;20134;-62
2022/05/24 06:03:04;;;;;;;9.77;8.05;;;;;;;18.67;nan;97851.63;4995338;28;20030;-62
2022/05/24 06:05:29;;;;;;;8.73;7.43;;;;;;;18.96;nan;97841.16;4995718;28;20053;-62
2022/05/24 06:07:56;;;;;;;8.40;7.65;;;;;;;19.19;nan;97850.84;4995658;28;20411;-62
2022/05/24 06:10:22;;;;;;;8.05;7.32;;;;;;;19.43;nan;97861.44;4996155;28;20041;-62
2022/05/24 06:12:48;;;;;;;7.38;6.55;;;;;;;19.57;nan;97851.75;4992890;28;20038;-62
2022/05/24 06:15:13;;;;;;;10.40;7.68;;;;;;;19.89;nan;97859.13;4988710;28;20583;-62
2022/05/24 06:17:46;;;;;;;7.25;6.65;;;;;;;20.16;nan;97856.38;4994121;28;20093;-62
2022/05/24 06:20:16;;;;;;;7.47;6.82;;;;;;;20.48;nan;97866.22;4996563;28;20042;-62
2022/05/24 06:22:41;;;;;;;7.25;6.55;;;;;;;20.65;nan;97859.81;4991541;28;20030;-62
2022/05/24 06:25:07;;;;;;;6.97;6.47;;;;;;;20.66;nan;97861.47;4989579;28;20041;-62
2022/05/24 06:27:32;;;;;;;7.35;6.75;;;;;;;20.66;nan;97861.47;4993654;28;20108;-62
2022/05/24 06:29:58;;;;;;;7.93;6.13;;;;;;;20.54;nan;97851.91;4995934;28;20042;-62
2022/05/24 06:32:23;;;;;;;7.65;6.57;;;;;;;20.64;nan;97857.31;4989222;28;20452;-62
2022/05/24 06:34:49;;;;;;;7.30;6.35;;;;;;;20.83;nan;97842.84;4989933;28;20040;-62
2022/05/24 06:37:18;;;;;;;8.30;7.47;;;;;;;20.98;nan;97857.34;4994121;28;20026;-62
2022/05/24 06:39:44;;;;;;;6.78;6.18;;;;;;;20.76;nan;97856.41;4995284;28;20128;-63
2022/05/24 06:42:10;;;;;;;7.05;6.50;;;;;;;20.76;nan;97853.81;4991818;28;20031;-63
2022/05/24 06:44:35;;;;;;;7.47;6.80;;;;;;;20.54;nan;97844.09;4991632;28;20476;-62
2022/05/24 06:47:01;;;;;;;7.15;6.55;;;;;;;20.44;nan;97850.94;4996326;28;20377;-61
2022/05/24 06:49:26;;;;;;;8.18;7.20;;;;;;;20.48;nan;97837.59;4998193;28;20114;-62
2022/05/24 06:51:52;;;;;;;9.30;7.15;;;;;;;20.54;nan;97851.91;4988529;28;20042;-62
2022/05/24 06:54:17;;;;;;;7.93;7.13;;;;;;;20.36;nan;97841.06;4991150;28;20042;-62
2022/05/24 06:56:43;;;;;;;6.85;6.35;;;;;;;20.39;nan;97840.84;4995548;28;20084;-62
2022/05/24 07:04:38;;;;;;;8.20;7.40;;;;;;;20.17;nan;97832.84;4994398;28;20108;-63
2022/05/24 07:07:04;;;;;;;9.80;7.50;;;;;;;20.28;nan;97829.50;4995501;28;20033;-63
2022/05/24 07:09:31;;;;;;;9.73;8.82;;;;;;;20.21;nan;97820.44;4990835;28;20616;-62
2022/05/24 07:11:58;;;;;;;8.10;7.43;;;;;;;20.36;nan;97817.63;4989206;28;20065;-61
2022/05/24 07:14:24;;;;;;;7.53;6.88;;;;;;;20.36;nan;97816.78;4995239;28;20034;-62
2022/05/24 07:16:49;;;;;;;9.48;8.65;;;;;;;20.39;nan;97832.19;4994488;28;20026;-63
2022/05/24 07:19:15;;;;;;;8.63;7.47;;;;;;;20.40;nan;97839.91;4990605;28;20037;-64
2022/05/24 07:21:40;;;;;;;7.82;6.53;;;;;;;20.76;nan;97846.81;5004760;28;20457;-62
2022/05/24 07:24:06;;;;;;;8.45;7.00;;;;;;;20.74;nan;97843.53;4994423;28;20030;-62
2022/05/24 07:26:31;;;;;;;8.07;7.38;;;;;;;21.01;nan;97840.66;4994241;28;20042;-62
2022/05/24 07:28:57;;;;;;;8.65;7.47;;;;;;;21.15;nan;97842.28;4987272;28;20030;-62
2022/05/24 07:31:22;;;;;;;8.18;7.47;;;;;;;21.28;nan;97841.25;4990258;28;20037;-62
2022/05/24 07:33:47;;;;;;;8.23;7.28;;;;;;;21.20;nan;97845.38;4994625;28;20036;-63
2022/05/24 07:36:13;;;;;;;7.50;6.13;;;;;;;21.40;nan;97839.50;4993283;28;20137;-62
2022/05/24 07:38:39;;;;;;;7.65;6.95;;;;;;;21.30;nan;97844.56;4987381;28;20038;-65
2022/05/24 07:46:33;;;;;;;8.32;7.60;;;;;;;21.15;nan;97824.84;4990676;28;20614;-62
2022/05/24 07:48:58;;;;;;;10.70;8.02;;;;;;;21.11;nan;97825.16;4987365;28;20070;-62
2022/05/24 07:51:24;;;;;;;9.10;8.30;;;;;;;21.17;nan;97825.59;4993871;28;20454;-62
2022/05/24 07:53:50;;;;;;;8.55;7.60;;;;;;;20.97;nan;97831.41;4994468;28;20040;-62
2022/05/24 07:56:16;;;;;;;7.78;7.00;;;;;;;21.08;nan;97813.22;4990901;28;20593;-65
2022/05/24 07:58:43;;;;;;;7.95;7.15;;;;;;;21.25;nan;97825.84;4987418;28;20435;-62
2022/05/24 08:01:10;;;;;;;9.45;8.18;;;;;;;21.44;nan;97825.28;4995139;28;20034;-62
2022/05/24 08:03:36;;;;;;;7.57;6.97;;;;;;;21.63;nan;97824.72;4998335;28;20096;-63
2022/05/24 08:06:02;;;;;;;8.90;8.02;;;;;;;21.73;nan;97829.09;4992461;28;20053;-63
2022/05/24 08:08:27;;;;;;;7.57;6.88;;;;;;;21.81;nan;97828.53;4990389;28;20041;-62
2022/05/24 08:10:53;;;;;;;9.00;7.65;;;;;;;22.06;nan;97830.09;4998291;28;20476;-62
2022/05/24 08:13:19;;;;;;;7.75;6.97;;;;;;;22.37;nan;97823.25;4998505;28;20034;-62
2022/05/24 08:15:46;;;;;;;7.72;7.13;;;;;;;22.06;nan;97822.25;4991806;28;20034;-63
2022/05/24 08:18:12;;;;;;;8.55;7.68;;;;;;;21.87;nan;97815.00;4993131;28;20210;-62
2022/05/24 08:20:38;;;;;;;7.38;6.68;;;;;;;22.10;nan;97823.69;4998813;28;20026;-62
2022/05/24 08:23:04;;;;;;;7.90;7.10;;;;;;;22.32;nan;97824.47;4997755;28;20034;-63
2022/05/24 08:25:30;;;;;;;8.90;7.80;;;;;;;22.27;nan;97817.97;4991488;28;20084;-62
2022/05/24 08:27:58;;;;;;;10.13;7.57;;;;;;;22.53;nan;97828.94;4993282;28;20161;-62
2022/05/24 08:30:24;;;;;;;7.63;6.93;;;;;;;22.55;nan;97825.25;4998015;28;20056;-62
2022/05/24 08:32:50;;;;;;;7.68;6.97;;;;;;;22.59;nan;97826.66;5003776;28;20661;-62
2022/05/24 08:35:19;;;;;;;7.38;6.78;;;;;;;22.87;nan;97827.09;4991373;28;20117;-62
2022/05/24 08:37:45;;;;;;;11.75;7.53;;;;;;;22.83;nan;97825.69;4995437;28;20042;-62
2022/05/24 08:40:14;;;;;;;7.38;6.68;;;;;;;23.04;nan;97823.91;4996201;28;20045;-62
2022/05/24 08:42:58;;;;;;;9.98;7.25;;;;;;;23.28;nan;97824.50;4993761;28;20062;-62
2022/05/24 08:48:26;;;;;;;6.03;5.43;;;;;;;23.70;nan;97811.38;4998227;28;20061;-61
2022/05/24 08:51:15;;;;;;;7.13;6.28;;;;;;;24.11;nan;97826.97;4996670;28;20038;-63
2022/05/24 08:53:47;;;;;;;5.80;5.30;;;;;;;24.32;nan;97830.38;4990251;28;20124;-63
2022/05/24 08:56:18;;;;;;;6.97;6.28;;;;;;;24.53;nan;97818.00;4992996;28;20038;-60
2022/05/24 08:58:50;;;;;;;6.75;6.25;;;;;;;24.33;nan;97824.19;4998244;28;20041;-62
2022/05/24 09:01:22;;;;;;;7.15;4.97;;;;;;;24.65;nan;97816.13;4994423;28;20499;-61
2022/05/24 09:03:48;;;;;;;8.02;6.93;;;;;;;24.83;nan;97811.84;4990389;28;20112;-61
2022/05/24 09:06:13;;;;;;;6.03;5.60;;;;;;;24.87;nan;97807.16;4995716;28;20604;-63
2022/05/24 09:09:03;;;;;;;10.57;6.18;;;;;;;24.93;nan;97810.09;4996325;28;20412;-62
2022/05/24 09:12:00;;;;;;;9.98;6.60;;;;;;;24.82;nan;97810.19;4992759;28;20563;-62
2022/05/24 09:14:31;;;;;;;6.95;6.45;;;;;;;24.97;nan;97808.00;4959570;28;20378;-62
2022/05/24 09:17:04;;;;;;;6.75;6.03;;;;;;;25.21;nan;97816.25;4966499;28;20502;-62
2022/05/24 09:19:35;;;;;;;8.70;6.38;;;;;;;25.72;nan;97809.81;4964894;28;20560;-62
2022/05/24 09:22:03;;;;;;;7.07;5.75;;;;;;;25.86;nan;97811.97;4958373;28;20038;-62
2022/05/24 09:24:41;;;;;;;6.32;5.82;;;;;;;25.73;nan;97811.47;4959327;28;20379;-62
2022/05/24 09:27:20;;;;;;;6.32;5.38;;;;;;;25.41;nan;97811.81;4965192;28;20508;-62
2022/05/24 09:30:06;;;;;;;6.10;5.55;;;;;;;25.21;nan;97818.88;4962220;28;20511;-62
2022/05/24 09:32:34;;;;;;;5.22;4.90;;;;;;;25.46;nan;97820.91;4957800;28;20050;-62
2022/05/24 09:35:04;;;;;;;6.65;6.07;;;;;;;25.27;nan;97823.56;4964289;28;21033;-62
2022/05/24 09:37:29;;;;;;;5.60;5.00;;;;;;;25.27;nan;97810.47;4963434;28;20046;-63
2022/05/24 09:40:06;;;;;;;7.10;5.53;;;;;;;25.37;nan;97818.31;4959920;28;20130;-62
2022/05/24 09:42:36;;;;;;;6.25;5.75;;;;;;;25.53;nan;97822.97;4958702;28;20135;-63
2022/05/24 09:45:09;;;;;;;6.50;5.82;;;;;;;25.58;nan;97823.41;4964950;28;20532;-62
2022/05/24 09:47:57;;;;;;;7.30;6.60;;;;;;;25.73;nan;97829.84;4964557;28;20529;-62
2022/05/24 09:50:25;;;;;;;5.75;5.25;;;;;;;25.20;nan;97821.66;4961481;28;20484;-63
2022/05/24 09:53:06;;;;;;;10.02;5.45;;;;;;;25.30;nan;97828.53;4992803;28;20038;-63
2022/05/24 09:55:42;;;;;;;8.20;4.90;;;;;;;25.77;nan;97826.78;4995661;28;20046;-63
2022/05/24 09:58:22;;;;;;;7.32;5.65;;;;;;;25.96;nan;97825.06;4992844;28;20042;-61
2022/05/24 10:00:57;;;;;;;6.57;6.00;;;;;;;26.10;nan;97828.03;4988011;28;20072;-62
2022/05/24 10:03:28;;;;;;;;;;;;;;;26.59;nan;97826.00;4994571;28;20420;-62
2022/05/24 10:06:11;;;;;;;6.05;5.00;;;;;;;26.76;nan;97833.91;4995386;28;19917;-63
2022/05/24 10:08:43;;;;;;;7.55;5.10;;;;;;;26.72;nan;97839.63;4990207;28;20510;-63
2022/05/24 10:11:19;;;;;;;5.85;4.78;;;;;;;26.61;nan;97830.13;4991148;28;20076;-63
2022/05/24 10:14:28;;;;;;;7.25;4.63;;;;;;;26.36;nan;97836.94;4996405;28;20026;-63
2022/05/24 10:17:05;;;;;;;4.80;4.35;;;;;;;26.71;nan;97824.81;4984822;28;20332;-63
2022/05/24 10:19:36;;;;;;;6.45;5.80;;;;;;;26.72;nan;97834.34;4990386;28;20034;-63
2022/05/24 10:22:08;;;;;;;6.22;5.47;;;;;;;26.74;nan;97835.03;5009963;28;20061;-62
2022/05/24 10:24:53;;;;;;;5.60;5.10;;;;;;;26.52;nan;97832.84;4995547;28;20042;-62
2022/05/24 10:27:44;;;;;;;9.20;6.20;;;;;;;26.29;nan;97814.00;4989353;28;20471;-62
2022/05/24 10:30:24;;;;;;;6.32;5.72;;;;;;;26.52;nan;97814.44;4991460;28;20617;-62
2022/05/24 10:39:15;;;;;;;6.35;5.28;;;;;;;25.76;nan;97819.88;4988864;28;20096;-62
2022/05/24 10:42:20;;;;;;;10.05;6.05;;;;;;;25.71;nan;97832.63;4995661;28;20033;-63
2022/05/24 10:44:49;;;;;;;;;;;;;;;25.58;nan;97839.16;4916712;29;20127;-61
2022/05/24 10:47:41;;;;;;;6.38;5.70;;;;;;;25.48;nan;97818.97;4910732;29;19927;-62
2022/05/24 10:50:13;;;;;;;8.77;5.85;;;;;;;25.30;nan;97806.72;4917812;29;20050;-62
2022/05/24 10:53:02;;;;;;;6.90;6.30;;;;;;;25.08;nan;97815.72;4918915;29;20046;-62
2022/05/24 10:55:33;;;;;;;7.05;5.85;;;;;;;25.09;nan;97819.16;4911949;29;20859;-62
2022/05/24 10:58:11;;;;;;;6.88;6.22;;;;;;;25.39;nan;97809.31;4912585;29;20046;-63
2022/05/24 11:00:43;;;;;;;6.60;5.57;;;;;;;25.32;nan;97810.03;4917592;29;20047;-63
2022/05/24 11:03:28;;;;;;;6.57;5.93;;;;;;;25.28;nan;97814.75;4916165;29;20070;-64
2022/05/24 11:06:05;;;;;;;6.43;5.78;;;;;;;25.16;nan;97804.53;4910246;29;20092;-64
2022/05/24 11:08:46;;;;;;;7.20;5.68;;;;;;;25.26;nan;97811.41;4916600;29;20080;-63
2022/05/24 11:11:34;;;;;;;5.88;5.47;;;;;;;25.39;nan;97811.94;4917616;29;20135;-62
2022/05/24 11:14:13;;;;;;;6.38;5.03;;;;;;;25.39;nan;97829.50;4912250;29;20044;-61
2022/05/24 11:16:46;;;;;;;6.72;6.00;;;;;;;25.29;nan;97831.31;4913235;29;20043;-62
2022/05/24 11:19:14;;;;;;;6.30;5.78;;;;;;;25.24;nan;97831.75;4917747;29;20522;-64
2022/05/24 11:21:48;;;;;;;6.25;5.70;;;;;;;25.43;nan;97829.06;4969265;28;20049;-63
2022/05/24 11:24:21;;;;;;;7.68;6.55;;;;;;;25.15;nan;97829.94;4989730;28;20034;-64
2022/05/24 11:26:54;;;;;;;5.40;5.00;;;;;;;25.37;nan;97837.53;4991900;28;20440;-63
2022/05/24 11:29:36;;;;;;;6.60;6.00;;;;;;;25.22;nan;97846.78;4995886;28;20069;-63
2022/05/24 11:32:07;;;;;;;6.70;5.97;;;;;;;25.46;nan;97844.53;4998814;28;20040;-63
2022/05/24 11:34:36;;;;;;;6.55;6.05;;;;;;;25.63;nan;97836.94;4988909;28;20399;-63
2022/05/24 11:37:25;;;;;;;7.97;6.32;;;;;;;25.79;nan;97831.91;4996932;28;20037;-62
2022/05/24 11:39:52;;;;;;;7.28;6.70;;;;;;;25.86;nan;97836.44;4998461;28;20121;-63
2022/05/24 11:42:46;;;;;;;8.95;6.30;;;;;;;26.12;nan;97841.88;4992250;28;20030;-62
2022/05/24 11:45:30;;;;;;;6.97;6.25;;;;;;;25.78;nan;97835.50;4987120;28;20042;-63
2022/05/24 11:48:17;;;;;;;7.63;5.57;;;;;;;25.74;nan;97837.59;4999879;28;20045;-62
2022/05/24 11:50:45;;;;;;;6.25;5.10;;;;;;;25.74;nan;97848.09;4995450;28;20089;-63
2022/05/24 11:53:41;;;;;;;6.65;5.97;;;;;;;25.50;nan;97836.41;4992644;28;20034;-62
2022/05/24 11:56:10;;;;;;;8.02;6.55;;;;;;;24.87;nan;97821.09;4999056;28;20065;-63
2022/05/24 11:58:35;;;;;;;6.07;5.55;;;;;;;24.34;nan;97833.72;4999077;28;20576;-63
2022/05/24 12:01:09;;;;;;;7.78;7.20;;;;;;;23.97;nan;97843.09;4991363;28;20042;-63
2022/05/24 12:09:17;;;;;;;7.13;6.38;;;;;;;23.08;nan;97841.00;4995153;28;20108;-63
2022/05/24 12:11:43;;;;;;;7.25;6.50;;;;;;;22.65;nan;97847.09;4991926;28;20740;-63
2022/05/24 12:14:17;;;;;;;7.45;6.60;;;;;;;22.27;nan;97855.34;4995826;28;20404;-63
2022/05/24 12:16:54;;;;;;;7.32;6.70;;;;;;;22.19;nan;97852.50;4994897;28;20042;-63
2022/05/24 12:19:38;;;;;;;12.88;7.57;;;;;;;22.03;nan;97840.75;4990384;28;20033;-62
2022/05/24 12:22:10;;;;;;;11.98;8.48;;;;;;;21.83;nan;97840.50;4991988;28;20457;-62
2022/05/24 12:24:35;;;;;;;9.60;8.57;;;;;;;21.60;nan;97845.81;4998993;28;20034;-62
2022/05/24 12:27:24;;;;;;;11.35;8.20;;;;;;;21.21;nan;97842.66;5000753;28;20517;-63
2022/05/24 12:29:55;;;;;;;9.05;8.15;;;;;;;20.90;nan;97828.44;4991668;28;20369;-62
2022/05/24 12:32:23;;;;;;;8.60;7.80;;;;;;;20.85;nan;97840.13;4994274;28;20054;-62
2022/05/24 12:34:49;;;;;;;9.45;8.55;;;;;;;20.56;nan;97844.00;4997372;28;20045;-62
2022/05/24 12:37:29;;;;;;;8.23;7.63;;;;;;;20.29;nan;97850.22;4994516;28;20643;-63
2022/05/24 12:40:07;;;;;;;10.45;7.45;;;;;;;20.22;nan;97862.00;4990874;28;20046;-61
2022/05/24 12:42:32;;;;;;;8.90;8.02;;;;;;;20.04;nan;97876.28;4996530;28;20033;-62
2022/05/24 12:45:00;;;;;;;10.55;9.50;;;;;;;19.88;nan;97866.09;4995869;28;20077;-61